createdAt,value
2022-12-04T00:00:37.532Z,58.34
2022-12-04T00:01:37.518Z,61.06
2022-12-04T00:02:37.519Z,57.74
2022-12-04T00:03:37.494Z,61.19
2022-12-04T00:04:37.530Z,61.43
2022-12-04T00:05:37.487Z,59.30
2022-12-04T00:06:37.481Z,59.86
2022-12-04T00:07:37.552Z,64.12
2022-12-04T00:08:37.439Z,61.47
2022-12-04T00:09:37.433Z,59.50
2022-12-04T00:10:37.478Z,58.17
2022-12-04T00:11:37.409Z,60.94
2022-12-04T00:12:37.400Z,60.86
2022-12-04T00:13:37.403Z,59.60
2022-12-04T00:14:54.407Z,59.49
2022-12-04T00:15:39.387Z,58.89
2022-12-04T00:16:37.434Z,60.52
2022-12-04T00:17:37.343Z,63.04
2022-12-04T00:18:37.336Z,59.99
2022-12-04T00:19:37.322Z,58.72
2022-12-04T00:20:37.353Z,60.69
2022-12-04T00:21:37.309Z,61.77
2022-12-04T00:22:37.301Z,60.21
2022-12-04T00:23:37.298Z,61.04
2022-12-04T00:24:37.280Z,60.77
2022-12-04T00:25:41.067Z,61.04
2022-12-04T00:26:38.280Z,61.54
2022-12-04T00:27:37.246Z,61.35
2022-12-04T00:28:37.234Z,62.12
2022-12-04T00:29:37.231Z,55.83
2022-12-04T00:30:37.355Z,58.29
2022-12-04T00:31:37.256Z,65.06
2022-12-04T00:32:37.206Z,57.73
2022-12-04T00:33:37.196Z,61.46
2022-12-04T00:34:37.187Z,59.93
2022-12-04T00:35:37.198Z,63.20
2022-12-04T00:36:37.156Z,60.94
2022-12-04T00:37:37.160Z,62.51
2022-12-04T00:38:37.147Z,59.45
2022-12-04T00:39:37.141Z,61.65
2022-12-04T00:40:37.140Z,60.64
2022-12-04T00:41:37.121Z,60.41
2022-12-04T00:42:37.119Z,60.21
2022-12-04T00:43:37.180Z,61.49
2022-12-04T00:44:37.172Z,60.83
2022-12-04T00:45:37.147Z,61.03
2022-12-04T00:46:37.070Z,62.20
2022-12-04T00:47:37.062Z,57.68
2022-12-04T00:48:37.047Z,60.46
2022-12-04T00:49:37.064Z,59.77
2022-12-04T00:50:37.055Z,57.32
2022-12-04T00:51:37.019Z,60.89
2022-12-04T00:52:37.018Z,59.35
2022-12-04T00:53:37.057Z,58.52
2022-12-04T00:54:37.043Z,58.20
2022-12-04T00:55:37.003Z,58.88
2022-12-04T00:56:37.025Z,59.75
2022-12-04T00:57:36.970Z,60.84
2022-12-04T00:58:36.996Z,59.35
2022-12-04T00:59:36.949Z,58.14
2022-12-04T01:00:37.056Z,59.15
2022-12-04T01:01:36.977Z,61.50
2022-12-04T01:02:37.011Z,58.02
2022-12-04T01:03:36.905Z,57.35
2022-12-04T01:04:36.886Z,58.17
2022-12-04T01:05:36.911Z,59.08
2022-12-04T01:06:36.885Z,59.81
2022-12-04T01:07:36.910Z,54.86
2022-12-04T01:08:36.849Z,59.76
2022-12-04T01:09:36.866Z,61.02
2022-12-04T01:10:36.857Z,61.11
2022-12-04T01:11:36.833Z,60.87
2022-12-04T01:12:36.815Z,60.26
2022-12-04T01:13:36.805Z,59.53
2022-12-04T01:14:36.804Z,59.53
2022-12-04T01:15:36.810Z,57.16
2022-12-04T01:16:36.981Z,60.48
2022-12-04T01:17:36.806Z,58.56
2022-12-04T01:18:37.803Z,60.53
2022-12-04T01:19:36.743Z,59.56
2022-12-04T01:20:36.756Z,55.59
2022-12-04T01:21:36.731Z,58.05
2022-12-04T01:22:36.747Z,59.30
2022-12-04T01:23:36.709Z,60.73
2022-12-04T01:24:36.696Z,57.78
2022-12-04T01:25:36.705Z,58.07
2022-12-04T01:26:36.681Z,58.13
2022-12-04T01:27:36.661Z,56.43
2022-12-04T01:28:36.661Z,58.71
2022-12-04T01:29:36.636Z,61.31
2022-12-04T01:30:36.665Z,57.62
2022-12-04T01:31:36.715Z,57.97
2022-12-04T01:32:36.616Z,57.53
2022-12-04T01:33:36.607Z,54.88
2022-12-04T01:34:36.614Z,57.46
2022-12-04T01:35:36.610Z,56.16
2022-12-04T01:36:36.577Z,57.55
2022-12-04T01:37:36.558Z,57.28
2022-12-04T01:38:36.575Z,56.95
2022-12-04T01:39:36.550Z,55.08
2022-12-04T01:40:36.564Z,58.76
2022-12-04T01:41:36.519Z,57.43
2022-12-04T01:42:36.522Z,56.91
2022-12-04T01:43:36.512Z,59.03
2022-12-04T01:44:36.502Z,58.16
2022-12-04T01:45:36.568Z,54.55
2022-12-04T01:46:36.491Z,60.66
2022-12-04T01:47:36.458Z,59.30
2022-12-04T01:48:37.463Z,57.48
2022-12-04T01:49:36.455Z,59.97
2022-12-04T01:50:36.490Z,56.71
2022-12-04T01:51:36.431Z,59.38
2022-12-04T01:52:36.422Z,59.01
2022-12-04T01:53:36.403Z,60.51
2022-12-04T01:54:36.402Z,59.21
2022-12-04T01:55:36.412Z,58.50
2022-12-04T01:56:36.388Z,59.55
2022-12-04T01:57:36.376Z,57.29
2022-12-04T01:58:36.370Z,58.20
2022-12-04T01:59:36.355Z,57.54
2022-12-04T02:00:36.402Z,57.91
2022-12-04T02:01:36.375Z,56.16
2022-12-04T02:02:36.377Z,54.84
2022-12-04T02:03:36.318Z,58.65
2022-12-04T02:04:36.303Z,53.16
2022-12-04T02:05:36.318Z,55.43
2022-12-04T02:06:36.285Z,62.30
2022-12-04T02:07:36.334Z,56.58
2022-12-04T02:08:36.264Z,55.93
2022-12-04T02:09:36.258Z,55.51
2022-12-04T02:10:36.275Z,60.74
2022-12-04T02:11:36.248Z,59.30
2022-12-04T02:12:36.220Z,58.24
2022-12-04T02:13:36.223Z,57.51
2022-12-04T02:14:36.207Z,62.86
2022-12-04T02:15:36.213Z,58.77
2022-12-04T02:16:36.243Z,56.31
2022-12-04T02:17:36.178Z,59.56
2022-12-04T02:18:36.170Z,55.62
2022-12-04T02:19:36.156Z,59.43
2022-12-04T02:20:36.168Z,58.90
2022-12-04T02:21:36.149Z,54.18
2022-12-04T02:22:36.124Z,54.45
2022-12-04T02:23:36.118Z,62.08
2022-12-04T02:24:36.107Z,55.69
2022-12-04T02:25:36.121Z,55.13
2022-12-04T02:26:36.097Z,57.63
2022-12-04T02:27:36.091Z,58.90
2022-12-04T02:28:36.069Z,55.88
2022-12-04T02:29:36.062Z,60.20
2022-12-04T02:30:36.137Z,53.92
2022-12-04T02:31:36.046Z,55.01
2022-12-04T02:32:36.036Z,57.73
2022-12-04T02:33:36.029Z,61.41
2022-12-04T02:34:36.012Z,57.21
2022-12-04T02:35:36.027Z,54.29
2022-12-04T02:36:35.991Z,56.50
2022-12-04T02:37:35.996Z,55.33
2022-12-04T02:38:35.976Z,59.02
2022-12-04T02:39:35.979Z,59.41
2022-12-04T02:40:35.953Z,58.75
2022-12-04T02:41:35.966Z,59.14
2022-12-04T02:42:35.940Z,57.81
2022-12-04T02:43:35.913Z,56.80
2022-12-04T02:44:36.918Z,57.34
2022-12-04T02:45:35.961Z,56.38
2022-12-04T02:46:35.916Z,58.76
2022-12-04T02:47:35.888Z,55.71
2022-12-04T02:48:35.873Z,56.72
2022-12-04T02:49:35.865Z,57.44
2022-12-04T02:50:35.878Z,58.63
2022-12-04T02:51:35.865Z,54.23
2022-12-04T02:52:35.839Z,57.26
2022-12-04T02:53:35.831Z,54.94
2022-12-04T02:54:35.823Z,58.51
2022-12-04T02:55:35.809Z,54.18
2022-12-04T02:56:35.812Z,54.11
2022-12-04T02:57:35.795Z,55.77
2022-12-04T02:58:35.785Z,57.07
2022-12-04T02:59:35.770Z,57.35
2022-12-04T03:00:35.752Z,55.95
2022-12-04T03:01:35.834Z,57.09
2022-12-04T03:02:35.800Z,60.52
2022-12-04T03:03:35.733Z,54.13
2022-12-04T03:04:35.726Z,57.85
2022-12-04T03:05:35.729Z,56.62
2022-12-04T03:06:35.724Z,56.29
2022-12-04T03:07:35.727Z,59.06
2022-12-04T03:08:35.691Z,56.45
2022-12-04T03:09:35.681Z,52.59
2022-12-04T03:13:22.284Z,55.75
2022-12-04T03:14:21.279Z,60.84
2022-12-04T03:15:21.272Z,53.00
2022-12-04T03:16:21.356Z,55.80
2022-12-04T03:17:21.249Z,58.31
2022-12-04T03:18:21.240Z,56.27
2022-12-04T03:19:21.229Z,54.72
2022-12-04T03:20:21.223Z,53.56
2022-12-04T03:21:21.249Z,58.87
2022-12-04T03:22:21.204Z,60.62
2022-12-04T03:23:21.193Z,54.76
2022-12-04T03:24:21.187Z,58.85
2022-12-04T03:25:21.172Z,57.70
2022-12-04T03:26:21.180Z,55.84
2022-12-04T03:27:21.151Z,54.99
2022-12-04T03:28:21.143Z,54.90
2022-12-04T03:29:21.136Z,54.55
2022-12-04T03:30:21.130Z,57.64
2022-12-04T03:31:22.308Z,53.20
2022-12-04T03:32:22.228Z,58.08
2022-12-04T03:33:22.207Z,60.75
2022-12-04T03:34:22.206Z,63.12
2022-12-04T03:35:22.231Z,64.65
2022-12-04T03:36:22.207Z,56.24
2022-12-04T03:37:22.190Z,56.08
2022-12-04T03:38:22.164Z,57.66
2022-12-04T03:39:22.166Z,58.28
2022-12-04T03:40:22.162Z,62.11
2022-12-04T03:41:22.167Z,52.51
2022-12-04T03:42:22.137Z,55.27
2022-12-04T03:43:22.130Z,55.29
2022-12-04T03:44:22.117Z,56.26
2022-12-04T03:45:22.100Z,56.74
2022-12-04T03:46:22.150Z,59.27
2022-12-04T03:47:22.096Z,53.94
2022-12-04T03:48:23.489Z,53.69
2022-12-04T03:49:23.110Z,53.94
2022-12-04T03:50:22.066Z,57.11
2022-12-04T03:51:22.064Z,59.13
2022-12-04T03:52:22.039Z,55.15
2022-12-04T03:53:22.029Z,58.16
2022-12-04T03:54:22.058Z,57.32
2022-12-04T03:55:22.016Z,54.68
2022-12-04T03:56:22.017Z,55.20
2022-12-04T03:57:21.989Z,54.73
2022-12-04T03:58:21.988Z,56.29
2022-12-04T03:59:21.976Z,60.56
2022-12-04T04:00:21.964Z,58.12
2022-12-04T04:01:22.007Z,57.71
2022-12-04T04:02:21.997Z,56.47
2022-12-04T04:03:21.936Z,51.21
2022-12-04T04:04:21.926Z,53.66
2022-12-04T04:05:21.912Z,57.98
2022-12-04T04:06:21.928Z,60.27
2022-12-04T04:07:21.893Z,54.96
2022-12-04T04:08:22.012Z,52.98
2022-12-04T04:09:21.864Z,58.11
2022-12-04T04:10:21.863Z,53.16
2022-12-04T04:11:21.858Z,55.89
2022-12-04T04:12:22.851Z,55.80
2022-12-04T04:13:21.839Z,59.90
2022-12-04T04:14:21.829Z,53.08
2022-12-04T04:15:21.823Z,52.52
2022-12-04T04:16:21.871Z,56.19
2022-12-04T04:17:21.790Z,56.31
2022-12-04T04:18:21.808Z,55.45
2022-12-04T04:19:21.789Z,59.79
2022-12-04T04:20:21.778Z,55.98
2022-12-04T04:21:21.779Z,54.69
2022-12-04T04:22:21.752Z,58.20
2022-12-04T04:23:21.741Z,54.86
2022-12-04T04:24:22.875Z,55.24
2022-12-04T04:25:21.720Z,55.13
2022-12-04T04:26:21.731Z,56.88
2022-12-04T04:27:21.701Z,61.61
2022-12-04T04:28:21.698Z,58.23
2022-12-04T04:29:21.687Z,54.78
2022-12-04T04:30:21.679Z,52.88
2022-12-04T04:31:21.701Z,59.24
2022-12-04T04:32:21.657Z,55.00
2022-12-04T04:33:21.635Z,59.37
2022-12-04T04:34:21.643Z,55.97
2022-12-04T04:35:21.638Z,56.99
2022-12-04T04:36:21.645Z,57.45
2022-12-04T04:37:21.605Z,58.64
2022-12-04T04:38:21.612Z,61.73
2022-12-04T04:39:21.595Z,57.89
2022-12-04T04:40:21.586Z,59.15
2022-12-04T04:41:21.591Z,56.70
2022-12-04T04:42:21.560Z,57.91
2022-12-04T04:43:21.551Z,62.18
2022-12-04T04:44:21.550Z,55.93
2022-12-04T04:45:21.541Z,58.89
2022-12-04T04:46:21.567Z,57.08
2022-12-04T04:47:21.533Z,57.77
2022-12-04T04:48:21.509Z,62.60
2022-12-04T04:49:21.497Z,55.18
2022-12-04T04:50:21.491Z,55.86
2022-12-04T04:51:21.489Z,61.05
2022-12-04T04:52:21.489Z,56.85
2022-12-04T04:53:21.466Z,57.34
2022-12-04T04:54:53.956Z,57.51
2022-12-04T04:55:21.444Z,59.57
2022-12-04T04:56:21.430Z,56.91
2022-12-04T04:57:21.495Z,56.77
2022-12-04T04:58:21.417Z,56.85
2022-12-04T04:59:21.403Z,54.93
2022-12-04T05:00:21.419Z,60.50
2022-12-04T05:01:21.440Z,55.21
2022-12-04T05:02:21.399Z,57.09
2022-12-04T05:03:21.430Z,55.69
2022-12-04T05:04:21.390Z,57.06
2022-12-04T05:05:21.343Z,55.16
2022-12-04T05:06:21.341Z,60.00
2022-12-04T05:07:21.345Z,56.43
2022-12-04T05:08:21.346Z,59.70
2022-12-04T05:09:21.313Z,56.08
2022-12-04T05:10:21.322Z,56.13
2022-12-04T05:11:21.294Z,56.62
2022-12-04T05:12:21.326Z,59.85
2022-12-04T05:13:21.308Z,57.11
2022-12-04T05:14:21.272Z,59.34
2022-12-04T05:15:21.259Z,58.68
2022-12-04T05:16:21.305Z,58.41
2022-12-04T05:17:21.280Z,53.80
2022-12-04T05:18:21.230Z,55.89
2022-12-04T05:19:21.221Z,59.35
2022-12-04T05:20:21.222Z,59.59
2022-12-04T05:21:21.196Z,59.13
2022-12-04T05:22:21.225Z,61.23
2022-12-04T05:23:21.179Z,60.24
2022-12-04T05:24:21.171Z,58.51
2022-12-04T05:25:21.166Z,57.64
2022-12-04T05:26:21.151Z,63.15
2022-12-04T05:27:21.157Z,59.40
2022-12-04T05:28:21.122Z,58.71
2022-12-04T05:29:21.121Z,61.68
2022-12-04T05:30:21.116Z,56.70
2022-12-04T05:31:21.164Z,58.92
2022-12-04T05:32:21.110Z,56.91
2022-12-04T05:33:21.112Z,58.36
2022-12-04T05:34:21.105Z,60.56
2022-12-04T05:35:21.064Z,61.49
2022-12-04T05:36:21.119Z,53.70
2022-12-04T05:37:21.107Z,54.50
2022-12-04T05:38:21.044Z,62.05
2022-12-04T05:39:21.049Z,59.23
2022-12-04T05:40:21.045Z,62.10
2022-12-04T05:41:21.637Z,58.52
2022-12-04T05:42:21.095Z,59.11
2022-12-04T05:43:21.038Z,58.66
2022-12-04T05:44:20.987Z,55.23
2022-12-04T05:45:20.978Z,57.03
2022-12-04T05:46:21.039Z,59.30
2022-12-04T05:47:20.968Z,57.45
2022-12-04T05:48:20.935Z,57.28
2022-12-04T05:49:20.956Z,59.15
2022-12-04T05:50:20.937Z,60.52
2022-12-04T05:51:20.943Z,56.11
2022-12-04T05:52:20.925Z,53.73
2022-12-04T05:53:20.911Z,55.25
2022-12-04T05:54:20.893Z,54.75
2022-12-04T05:55:20.926Z,54.39
2022-12-04T05:56:20.901Z,58.34
2022-12-04T05:57:23.171Z,60.70
2022-12-04T05:58:20.861Z,55.96
2022-12-04T05:59:20.885Z,58.27
2022-12-04T06:00:20.835Z,57.46
2022-12-04T06:01:21.690Z,57.55
2022-12-04T06:02:20.910Z,54.44
2022-12-04T06:03:20.860Z,55.66
2022-12-04T06:04:20.796Z,58.00
2022-12-04T06:05:20.799Z,57.61
2022-12-04T06:06:22.232Z,56.77
2022-12-04T06:07:21.796Z,54.89
2022-12-04T06:08:20.792Z,53.99
2022-12-04T06:09:20.770Z,58.31
2022-12-04T06:10:20.746Z,58.53
2022-12-04T06:11:20.731Z,56.55
2022-12-04T06:12:20.725Z,56.90
2022-12-04T06:13:20.712Z,57.55
2022-12-04T06:14:20.707Z,57.84
2022-12-04T06:15:20.714Z,58.97
2022-12-04T06:16:20.730Z,59.60
2022-12-04T06:17:20.689Z,60.80
2022-12-04T06:18:20.678Z,60.72
2022-12-04T06:19:20.661Z,61.48
2022-12-04T06:20:20.678Z,58.96
2022-12-04T06:21:20.632Z,58.25
2022-12-04T06:22:20.652Z,57.91
2022-12-04T06:23:20.611Z,61.13
2022-12-04T06:24:20.634Z,59.76
2022-12-04T06:25:20.604Z,61.71
2022-12-04T06:26:20.588Z,64.65
2022-12-04T06:27:28.706Z,63.06
2022-12-04T06:28:22.588Z,64.25
2022-12-04T06:29:20.551Z,65.82
2022-12-04T06:30:21.576Z,66.74
2022-12-04T06:31:20.598Z,62.18
2022-12-04T06:32:21.942Z,62.07
2022-12-04T06:33:21.574Z,61.18
2022-12-04T06:34:20.526Z,63.31
2022-12-04T06:35:20.518Z,63.84
2022-12-04T06:36:20.501Z,62.75
2022-12-04T06:37:20.502Z,59.27
2022-12-04T06:38:20.497Z,63.55
2022-12-04T06:39:20.490Z,62.12
2022-12-04T06:40:20.470Z,60.01
2022-12-04T06:41:20.451Z,62.88
2022-12-04T06:42:20.468Z,61.66
2022-12-04T06:43:20.463Z,59.43
2022-12-04T06:44:20.467Z,63.36
2022-12-04T06:45:20.407Z,60.67
2022-12-04T06:46:20.522Z,62.98
2022-12-04T06:47:20.411Z,60.59
2022-12-04T06:48:20.413Z,62.49
2022-12-04T06:49:20.392Z,59.93
2022-12-04T06:50:20.370Z,63.22
2022-12-04T06:51:20.390Z,58.51
2022-12-04T06:52:20.381Z,62.72
2022-12-04T06:53:20.347Z,62.79
2022-12-04T06:54:20.353Z,60.38
2022-12-04T06:55:20.350Z,58.59
2022-12-04T06:56:20.315Z,57.70
2022-12-04T06:57:20.375Z,59.40
2022-12-04T06:58:20.329Z,62.15
2022-12-04T06:59:20.291Z,59.43
2022-12-04T07:00:20.283Z,61.38
2022-12-04T07:01:20.330Z,59.53
2022-12-04T07:02:20.383Z,60.63
2022-12-04T07:03:20.252Z,61.16
2022-12-04T07:04:20.254Z,60.44
2022-12-04T07:05:20.258Z,59.17
2022-12-04T07:06:20.231Z,63.13
2022-12-04T07:07:20.234Z,59.37
2022-12-04T07:08:20.287Z,63.17
2022-12-04T07:09:20.198Z,64.12
2022-12-04T07:10:20.183Z,58.99
2022-12-04T07:11:20.194Z,61.23
2022-12-04T07:12:20.181Z,59.81
2022-12-04T07:13:20.157Z,61.26
2022-12-04T07:14:20.152Z,58.01
2022-12-04T07:15:20.147Z,56.67
2022-12-04T07:16:20.241Z,61.61
2022-12-04T07:17:20.150Z,59.42
2022-12-04T07:18:20.127Z,61.17
2022-12-04T07:19:20.135Z,62.15
2022-12-04T07:20:20.089Z,59.37
2022-12-04T07:21:20.096Z,62.99
2022-12-04T07:22:20.107Z,64.74
2022-12-04T07:23:20.102Z,60.79
2022-12-04T07:24:20.069Z,62.92
2022-12-04T07:25:20.052Z,64.18
2022-12-04T07:26:20.039Z,61.27
2022-12-04T07:27:20.058Z,62.67
2022-12-04T07:28:20.037Z,59.94
2022-12-04T07:29:20.012Z,63.31
2022-12-04T07:30:20.023Z,64.08
2022-12-04T07:31:20.025Z,62.49
2022-12-04T07:32:20.077Z,63.05
2022-12-04T07:33:19.987Z,64.35
2022-12-04T07:34:19.999Z,60.72
2022-12-04T07:35:19.997Z,61.08
2022-12-04T07:36:19.956Z,62.50
2022-12-04T07:37:20.025Z,60.37
2022-12-04T07:38:19.995Z,62.69
2022-12-04T07:39:19.912Z,63.57
2022-12-04T07:40:19.955Z,63.16
2022-12-04T07:41:19.909Z,62.38
2022-12-04T07:42:24.120Z,62.94
2022-12-04T07:43:20.930Z,63.94
2022-12-04T07:44:19.895Z,62.97
2022-12-04T07:45:19.884Z,62.52
2022-12-04T07:46:19.959Z,63.46
2022-12-04T07:47:19.865Z,63.53
2022-12-04T07:48:19.876Z,62.62
2022-12-04T07:49:19.825Z,65.79
2022-12-04T07:50:19.841Z,63.27
2022-12-04T07:51:19.845Z,65.51
2022-12-04T07:52:19.809Z,65.21
2022-12-04T07:53:19.857Z,63.63
2022-12-04T07:54:19.814Z,64.73
2022-12-04T07:55:23.141Z,64.05
2022-12-04T07:56:20.821Z,62.56
2022-12-04T07:57:19.792Z,65.12
2022-12-04T07:58:19.824Z,63.74
2022-12-04T07:59:19.750Z,60.94
2022-12-04T08:00:19.733Z,64.08
2022-12-04T08:01:19.893Z,63.18
2022-12-04T08:02:19.732Z,63.99
2022-12-04T08:03:19.734Z,64.02
2022-12-04T08:04:19.746Z,65.20
2022-12-04T08:05:19.711Z,63.19
2022-12-04T08:06:19.683Z,64.36
2022-12-04T08:07:19.685Z,63.03
2022-12-04T08:08:19.781Z,65.18
2022-12-04T08:09:19.687Z,63.55
2022-12-04T08:10:19.682Z,62.76
2022-12-04T08:11:19.763Z,67.29
2022-12-04T08:12:19.639Z,64.90
2022-12-04T08:13:19.647Z,64.67
2022-12-04T08:14:19.618Z,62.90
2022-12-04T08:15:19.615Z,64.38
2022-12-04T08:16:19.630Z,64.07
2022-12-04T08:17:19.724Z,65.03
2022-12-04T08:18:19.604Z,63.14
2022-12-04T08:19:19.573Z,63.39
2022-12-04T08:20:19.608Z,63.76
2022-12-04T08:21:19.556Z,62.06
2022-12-04T08:22:24.894Z,64.00
2022-12-04T08:23:21.558Z,64.03
2022-12-04T08:24:19.536Z,63.12
2022-12-04T08:25:19.520Z,65.11
2022-12-04T08:26:19.529Z,65.33
2022-12-04T08:27:19.505Z,63.06
2022-12-04T08:28:19.531Z,64.59
2022-12-04T08:29:19.490Z,64.06
2022-12-04T08:30:19.479Z,65.87
2022-12-04T08:31:19.643Z,67.11
2022-12-04T08:32:19.456Z,65.68
2022-12-04T08:33:19.463Z,64.92
2022-12-04T08:34:19.442Z,65.30
2022-12-04T08:35:19.448Z,67.86
2022-12-04T08:36:19.441Z,66.57
2022-12-04T08:37:19.416Z,68.38
2022-12-04T08:38:19.438Z,65.38
2022-12-04T08:39:19.450Z,66.73
2022-12-04T08:40:19.404Z,65.53
2022-12-04T08:41:19.404Z,66.35
2022-12-04T08:42:19.386Z,66.33
2022-12-04T08:43:19.380Z,67.11
2022-12-04T08:44:19.384Z,68.13
2022-12-04T08:45:19.340Z,67.77
2022-12-04T08:46:19.418Z,66.10
2022-12-04T08:47:19.330Z,67.32
2022-12-04T08:48:19.333Z,68.02
2022-12-04T08:49:19.325Z,66.67
2022-12-04T08:50:19.310Z,65.21
2022-12-04T08:51:19.290Z,66.46
2022-12-04T08:52:19.300Z,67.17
2022-12-04T08:53:19.288Z,66.06
2022-12-04T08:54:19.391Z,67.18
2022-12-04T08:55:19.262Z,66.48
2022-12-04T08:56:19.246Z,67.40
2022-12-04T08:57:19.245Z,68.65
2022-12-04T08:58:19.252Z,67.19
2022-12-04T08:59:19.290Z,67.24
2022-12-04T09:00:19.219Z,66.78
2022-12-04T09:01:19.277Z,66.19
2022-12-04T09:02:19.201Z,66.85
2022-12-04T09:03:19.212Z,68.66
2022-12-04T09:04:19.354Z,67.64
2022-12-04T09:05:19.171Z,66.68
2022-12-04T09:06:19.172Z,66.04
2022-12-04T09:07:19.191Z,66.19
2022-12-04T09:08:19.326Z,67.62
2022-12-04T09:09:19.139Z,67.22
2022-12-04T09:10:19.128Z,66.93
2022-12-04T09:11:19.117Z,67.95
2022-12-04T09:12:19.110Z,66.98
2022-12-04T09:13:19.116Z,66.08
2022-12-04T09:14:19.103Z,67.80
2022-12-04T09:15:19.091Z,67.98
2022-12-04T09:16:19.270Z,66.73
2022-12-04T09:17:19.168Z,67.10
2022-12-04T09:18:19.102Z,68.22
2022-12-04T09:19:19.068Z,65.68
2022-12-04T09:20:19.046Z,67.55
2022-12-04T09:21:19.032Z,68.52
2022-12-04T09:22:19.029Z,68.81
2022-12-04T09:23:19.071Z,67.11
2022-12-04T09:24:19.007Z,69.15
2022-12-04T09:25:19.005Z,66.81
2022-12-04T09:26:18.992Z,66.52
2022-12-04T09:27:18.987Z,67.76
2022-12-04T09:28:18.991Z,67.29
2022-12-04T09:29:18.984Z,66.65
2022-12-04T09:30:18.960Z,67.49
2022-12-04T09:31:19.007Z,68.64
2022-12-04T09:32:18.941Z,67.96
2022-12-04T09:33:18.995Z,68.02
2022-12-04T09:34:18.929Z,68.72
2022-12-04T09:35:18.941Z,67.45
2022-12-04T09:36:18.907Z,69.16
2022-12-04T09:37:18.916Z,67.65
2022-12-04T09:38:18.915Z,67.84
2022-12-04T09:39:18.907Z,68.82
2022-12-04T09:40:18.903Z,68.40
2022-12-04T09:41:18.884Z,69.01
2022-12-04T09:42:18.866Z,68.82
2022-12-04T09:43:18.880Z,69.45
2022-12-04T09:44:18.842Z,68.56
2022-12-04T09:45:18.895Z,67.30
2022-12-04T09:46:18.917Z,69.49
2022-12-04T09:47:18.818Z,69.07
2022-12-04T09:48:18.817Z,67.35
2022-12-04T09:49:18.795Z,67.60
2022-12-04T09:50:18.789Z,68.74
2022-12-04T09:51:18.845Z,68.27
2022-12-04T09:52:21.848Z,67.61
2022-12-04T09:53:18.795Z,68.97
2022-12-04T09:54:18.754Z,67.80
2022-12-04T09:55:18.780Z,68.24
2022-12-04T09:56:18.728Z,68.26
2022-12-04T09:57:18.736Z,69.36
2022-12-04T09:58:18.773Z,69.52
2022-12-04T09:59:18.713Z,68.52
2022-12-04T10:00:18.691Z,69.59
2022-12-04T10:01:18.758Z,69.45
2022-12-04T10:02:18.827Z,67.85
2022-12-04T10:03:18.909Z,70.01
2022-12-04T10:04:18.878Z,67.23
2022-12-04T10:05:18.658Z,70.58
2022-12-04T10:06:18.655Z,67.45
2022-12-04T10:07:18.749Z,68.06
2022-12-04T10:08:18.733Z,67.86
2022-12-04T10:09:18.644Z,69.48
2022-12-04T10:10:18.630Z,67.84
2022-12-04T10:11:18.675Z,68.59
2022-12-04T10:12:18.600Z,68.95
2022-12-04T10:13:18.634Z,69.18
2022-12-04T10:14:18.633Z,69.03
2022-12-04T10:15:18.612Z,68.17
2022-12-04T10:16:18.672Z,70.04
2022-12-04T10:17:18.563Z,69.95
2022-12-04T10:18:18.589Z,69.53
2022-12-04T10:19:18.586Z,69.73
2022-12-04T10:20:18.539Z,70.98
2022-12-04T10:21:18.543Z,68.49
2022-12-04T10:22:18.580Z,69.10
2022-12-04T10:23:18.535Z,69.27
2022-12-04T10:24:18.505Z,70.57
2022-12-04T10:25:18.534Z,67.03
2022-12-04T10:26:18.478Z,69.64
2022-12-04T10:27:18.508Z,68.05
2022-12-04T10:28:18.501Z,70.14
2022-12-04T10:29:18.495Z,68.17
2022-12-04T10:30:18.444Z,69.92
2022-12-04T10:31:18.534Z,69.75
2022-12-04T10:32:24.365Z,69.94
2022-12-04T10:33:19.448Z,71.22
2022-12-04T10:34:18.416Z,70.93
2022-12-04T10:35:18.472Z,71.21
2022-12-04T10:36:18.392Z,67.86
2022-12-04T10:37:18.395Z,69.00
2022-12-04T10:38:18.374Z,68.92
2022-12-04T10:39:18.378Z,69.96
2022-12-04T10:40:18.376Z,69.48
2022-12-04T10:41:18.350Z,71.04
2022-12-04T10:42:18.365Z,69.24
2022-12-04T10:43:18.336Z,70.54
2022-12-04T10:44:18.355Z,69.32
2022-12-04T10:45:18.317Z,69.34
2022-12-04T10:46:18.372Z,70.69
2022-12-04T10:47:18.358Z,69.88
2022-12-04T10:48:19.310Z,68.70
2022-12-04T10:49:18.315Z,70.79
2022-12-04T10:50:18.350Z,68.71
2022-12-04T10:51:18.277Z,69.78
2022-12-04T10:52:18.275Z,69.75
2022-12-04T10:53:18.272Z,70.96
2022-12-04T10:54:18.276Z,70.42
2022-12-04T10:55:44.648Z,70.88
2022-12-04T10:56:18.239Z,69.09
2022-12-04T10:57:18.218Z,69.75
2022-12-04T10:58:18.219Z,70.75
2022-12-04T10:59:18.354Z,69.45
2022-12-04T11:00:18.201Z,70.32
2022-12-04T11:01:18.384Z,69.76
2022-12-04T11:02:18.264Z,71.24
2022-12-04T11:03:18.195Z,70.91
2022-12-04T11:04:18.184Z,70.23
2022-12-04T11:05:18.165Z,70.40
2022-12-04T11:06:18.430Z,70.73
2022-12-04T11:07:18.146Z,68.66
2022-12-04T11:08:19.944Z,69.24
2022-12-04T11:09:19.138Z,70.07
2022-12-04T11:10:18.113Z,69.61
2022-12-04T11:11:18.104Z,69.61
2022-12-04T11:12:18.098Z,69.34
2022-12-04T11:13:18.094Z,69.90
2022-12-04T11:14:18.097Z,70.53
2022-12-04T11:15:18.077Z,70.10
2022-12-04T11:16:18.104Z,70.00
2022-12-04T11:17:18.061Z,70.01
2022-12-04T11:18:18.052Z,72.15
2022-12-04T11:19:18.052Z,71.32
2022-12-04T11:20:18.204Z,69.15
2022-12-04T11:21:18.027Z,69.70
2022-12-04T11:22:18.021Z,70.26
2022-12-04T11:23:18.012Z,69.27
2022-12-04T11:24:18.017Z,70.90
2022-12-04T11:25:17.987Z,69.78
2022-12-04T11:26:17.977Z,70.78
2022-12-04T11:27:17.980Z,70.32
2022-12-04T11:28:33.871Z,69.59
2022-12-04T11:29:19.970Z,70.64
2022-12-04T11:30:17.980Z,70.11
2022-12-04T11:31:17.976Z,69.83
2022-12-04T11:32:17.928Z,70.06
2022-12-04T11:33:17.921Z,70.67
2022-12-04T11:34:17.929Z,70.04
2022-12-04T11:35:17.906Z,70.10
2022-12-04T11:36:17.900Z,69.12
2022-12-04T11:37:17.889Z,71.70
2022-12-04T11:38:17.864Z,70.73
2022-12-04T11:39:17.891Z,69.54
2022-12-04T11:40:17.923Z,69.08
2022-12-04T11:41:17.844Z,70.61
2022-12-04T11:42:17.845Z,69.79
2022-12-04T11:43:17.826Z,69.71
2022-12-04T11:44:17.834Z,69.96
2022-12-04T11:45:17.911Z,71.11
2022-12-04T11:46:17.877Z,71.03
2022-12-04T11:47:17.806Z,70.20
2022-12-04T11:48:17.788Z,69.33
2022-12-04T11:49:18.071Z,70.26
2022-12-04T11:50:17.798Z,69.43
2022-12-04T11:51:17.768Z,69.98
2022-12-04T11:52:17.789Z,68.55
2022-12-04T11:53:17.752Z,70.99
2022-12-04T11:54:17.758Z,71.43
2022-12-04T11:55:17.739Z,69.75
2022-12-04T11:56:17.720Z,69.41
2022-12-04T11:57:17.715Z,70.42
2022-12-04T11:58:17.747Z,70.55
2022-12-04T11:59:17.719Z,70.23
2022-12-04T12:00:17.703Z,69.73
2022-12-04T12:01:17.681Z,68.86
2022-12-04T12:02:17.780Z,70.14
2022-12-04T12:03:17.813Z,69.63
2022-12-04T12:04:17.669Z,68.17
2022-12-04T12:05:17.659Z,70.69
2022-12-04T12:06:17.641Z,71.78
2022-12-04T12:07:17.637Z,70.30
2022-12-04T12:08:17.626Z,71.45
2022-12-04T12:09:17.674Z,71.14
2022-12-04T12:10:17.613Z,70.62
2022-12-04T12:11:17.598Z,71.39
2022-12-04T12:12:17.589Z,69.83
2022-12-04T12:13:17.597Z,70.25
2022-12-04T12:14:17.603Z,70.65
2022-12-04T12:15:17.675Z,70.70
2022-12-04T12:16:17.635Z,71.56
2022-12-04T12:17:17.567Z,70.97
2022-12-04T12:18:20.711Z,69.97
2022-12-04T12:19:17.562Z,70.86
2022-12-04T12:20:17.571Z,70.51
2022-12-04T12:21:17.522Z,69.57
2022-12-04T12:22:17.516Z,70.58
2022-12-04T12:23:17.542Z,71.31
2022-12-04T12:24:17.522Z,69.92
2022-12-04T12:25:17.488Z,70.74
2022-12-04T12:26:17.482Z,71.41
2022-12-04T12:27:17.488Z,70.26
2022-12-04T12:28:17.472Z,70.55
2022-12-04T12:29:17.482Z,71.56
2022-12-04T12:30:17.459Z,69.97
2022-12-04T12:31:17.513Z,69.81
2022-12-04T12:32:18.534Z,70.39
2022-12-04T12:33:17.425Z,71.22
2022-12-04T12:34:17.450Z,71.94
2022-12-04T12:35:17.414Z,71.23
2022-12-04T12:36:17.418Z,69.84
2022-12-04T12:37:17.400Z,70.65
2022-12-04T12:38:17.381Z,69.60
2022-12-04T12:39:17.386Z,71.41
2022-12-04T12:40:17.364Z,70.80
2022-12-04T12:41:17.372Z,71.10
2022-12-04T12:42:17.355Z,72.71
2022-12-04T12:43:17.466Z,71.24
2022-12-04T12:44:17.343Z,71.05
2022-12-04T12:45:17.334Z,71.61
2022-12-04T12:46:17.412Z,71.74
2022-12-04T12:47:17.323Z,72.36
2022-12-04T12:48:17.310Z,72.45
2022-12-04T12:49:17.402Z,71.56
2022-12-04T12:50:17.298Z,69.55
2022-12-04T12:52:20.049Z,72.20
2022-12-04T12:53:17.256Z,72.23
2022-12-04T12:54:17.278Z,72.89
2022-12-04T12:55:17.240Z,71.58
2022-12-04T12:56:17.254Z,72.43